Time;durP1;ratioP1;P1;durP2;ratioP2;P2;SDS_P1;SDS_P2;PMS_P1;PMS_P2;Temp;Humidity;BMP_temperature;BMP_pressure;BME280_temperature;BME280_humidity;BME280_pressure;Samples;Min_cycle;Max_cycle;Signal;HPM_P1;HPM_P2
2023/06/20 00:00:14;;;;;;;4.10;3.45;;;;;;;22.25;52.39;98739.25;4956087;29;20504;-78
2023/06/20 00:02:39;;;;;;;4.28;3.10;;;;;;;22.18;52.33;98733.91;4955939;29;20083;-78
2023/06/20 00:05:05;;;;;;;7.90;3.65;;;;;;;22.20;52.38;98734.50;4939851;29;20040;-78
2023/06/20 00:07:31;;;;;;;9.60;3.47;;;;;;;22.17;52.52;98743.72;4939713;29;20073;-78
2023/06/20 00:09:57;;;;;;;4.13;3.50;;;;;;;22.09;52.52;98730.56;4924098;29;20031;-78
2023/06/20 00:12:22;;;;;;;7.20;3.25;;;;;;;22.11;52.62;98741.00;4940030;29;20071;-78
2023/06/20 00:14:48;;;;;;;6.30;3.33;;;;;;;22.05;52.69;98730.09;4955973;29;20047;-78
2023/06/20 00:17:13;;;;;;;4.93;3.78;;;;;;;21.93;52.71;98736.13;4955905;29;20035;-78
2023/06/20 00:19:40;;;;;;;6.68;3.35;;;;;;;21.92;52.79;98730.00;4955615;29;20035;-78
2023/06/20 00:22:05;;;;;;;5.03;3.28;;;;;;;21.92;52.22;98731.81;4939722;29;20039;-78
2023/06/20 00:24:32;;;;;;;5.70;3.50;;;;;;;21.91;52.34;98730.19;4955042;29;20042;-78
2023/06/20 00:27:02;;;;;;;4.88;3.10;;;;;;;21.89;52.21;98721.59;4939753;29;20059;-78
2023/06/20 00:29:27;;;;;;;6.22;3.40;;;;;;;21.85;52.56;98721.13;4923648;29;20138;-79
2023/06/20 00:31:53;;;;;;;5.55;3.33;;;;;;;21.81;52.36;98710.06;4955747;29;20031;-79
2023/06/20 00:34:18;;;;;;;5.45;3.50;;;;;;;21.78;52.49;98717.59;4939297;29;20031;-80
2023/06/20 00:36:44;;;;;;;7.47;3.53;;;;;;;21.80;52.16;98715.56;4939319;28;20110;-79
2023/06/20 00:39:10;;;;;;;7.50;3.33;;;;;;;21.82;51.94;98716.19;4939642;29;20387;-79
2023/06/20 00:41:36;;;;;;;5.53;3.50;;;;;;;21.73;51.69;98699.56;4955179;29;20031;-79
2023/06/20 00:44:05;;;;;;;5.72;3.53;;;;;;;21.78;51.58;98712.28;4955085;28;20065;-79
2023/06/20 00:46:36;;;;;;;4.05;3.22;;;;;;;21.77;52.04;98721.28;4939704;29;20499;-79
2023/06/20 00:49:05;;;;;;;4.03;3.47;;;;;;;21.71;51.76;98725.50;4939325;29;20501;-79
2023/06/20 00:51:30;;;;;;;5.10;3.80;;;;;;;21.63;52.21;98715.00;4955053;29;20514;-79
2023/06/20 00:53:56;;;;;;;5.28;3.63;;;;;;;21.69;52.06;98719.56;4954554;29;20083;-80
2023/06/20 00:56:24;;;;;;;4.55;3.50;;;;;;;21.72;52.27;98723.69;4939283;29;20047;-79
2023/06/20 00:58:49;;;;;;;5.32;3.58;;;;;;;21.69;52.43;98708.94;4939061;28;20035;-79
2023/06/20 01:01:16;;;;;;;6.70;3.53;;;;;;;21.67;52.44;98721.59;4954508;28;20039;-79
2023/06/20 01:03:43;;;;;;;3.92;3.25;;;;;;;21.66;52.72;98723.44;4939156;29;20039;-79
2023/06/20 01:06:41;;;;;;;5.40;3.67;;;;;;;21.65;52.80;98721.78;4922651;29;20035;-79
2023/06/20 01:09:46;;;;;;;6.70;3.42;;;;;;;21.60;52.70;98718.88;4955124;29;20106;-79
2023/06/20 01:12:39;;;;;;;7.55;3.60;;;;;;;21.55;52.61;98712.47;4954667;28;20110;-79
2023/06/20 01:15:20;;;;;;;5.88;3.20;;;;;;;21.54;52.94;98716.13;4923450;29;20097;-79
2023/06/20 01:17:51;;;;;;;6.43;4.10;;;;;;;21.44;53.02;98703.97;4954702;29;20030;-79
2023/06/20 01:20:25;;;;;;;5.90;3.53;;;;;;;21.43;53.20;98718.25;4938992;29;20051;-79
2023/06/20 01:23:01;;;;;;;7.03;3.38;;;;;;;21.38;53.41;98717.16;4938393;29;20066;-79
2023/06/20 01:25:47;;;;;;;7.22;3.17;;;;;;;21.37;53.18;98718.19;4954286;28;20105;-79
2023/06/20 01:28:13;;;;;;;4.25;3.22;;;;;;;21.40;52.92;98725.78;4954600;29;20069;-79
2023/06/20 01:30:45;;;;;;;8.68;3.47;;;;;;;21.29;52.83;98711.97;4955295;28;20058;-79
2023/06/20 01:33:10;;;;;;;4.22;3.20;;;;;;;21.30;53.01;98720.72;4954532;28;20035;-79
2023/06/20 01:35:36;;;;;;;4.97;3.50;;;;;;;21.31;53.27;98719.72;4938192;29;20035;-79
2023/06/20 01:38:04;;;;;;;6.70;3.40;;;;;;;21.30;53.20;98713.59;4954348;28;20039;-79
2023/06/20 01:40:29;;;;;;;4.68;3.80;;;;;;;21.31;53.07;98712.59;4938370;29;20091;-79
2023/06/20 01:42:58;;;;;;;5.28;3.50;;;;;;;21.28;53.16;98715.59;4937983;29;20463;-79
2023/06/20 01:45:23;;;;;;;4.07;3.40;;;;;;;21.26;53.36;98711.50;4955176;28;20031;-79
2023/06/20 01:47:49;;;;;;;6.25;3.58;;;;;;;21.23;53.30;98712.69;4938214;29;20119;-79
2023/06/20 01:50:14;;;;;;;4.10;3.50;;;;;;;21.22;53.38;98715.53;4937913;29;20565;-79
2023/06/20 01:52:40;;;;;;;5.18;3.33;;;;;;;21.16;53.44;98717.13;4937817;29;20031;-79
2023/06/20 01:55:06;;;;;;;5.10;3.58;;;;;;;21.12;53.53;98708.69;4921885;29;20110;-79
2023/06/20 01:57:32;;;;;;;11.90;3.50;;;;;;;21.09;53.79;98713.56;4922275;29;20110;-79
2023/06/20 01:59:58;;;;;;;5.95;3.38;;;;;;;21.01;53.71;98709.16;4938145;29;20038;-79
2023/06/20 02:02:24;;;;;;;6.03;3.47;;;;;;;21.04;53.70;98711.44;4953507;29;20027;-79
2023/06/20 02:04:50;;;;;;;5.07;3.58;;;;;;;21.05;53.19;98712.28;4953998;29;20038;-79
2023/06/20 02:07:15;;;;;;;4.40;3.38;;;;;;;21.01;53.61;98714.47;4937914;29;20031;-79
2023/06/20 02:09:42;;;;;;;5.68;3.25;;;;;;;20.94;53.57;98703.78;4921875;29;20086;-79
2023/06/20 02:12:08;;;;;;;6.68;3.63;;;;;;;20.91;53.78;98698.03;4936986;29;20027;-79
2023/06/20 02:14:33;;;;;;;8.75;3.33;;;;;;;20.95;54.06;98709.91;4921864;29;20050;-80
2023/06/20 02:17:00;;;;;;;6.18;3.42;;;;;;;20.89;53.92;98702.69;4953518;29;20499;-79
2023/06/20 02:19:25;;;;;;;6.28;3.30;;;;;;;20.94;53.96;98716.22;4921936;29;20054;-79
2023/06/20 02:21:51;;;;;;;8.20;3.83;;;;;;;20.92;54.10;98715.56;4937333;29;20411;-79
2023/06/20 02:24:18;;;;;;;9.55;3.45;;;;;;;20.92;54.09;98710.25;4937483;29;20035;-79
2023/06/20 02:26:44;;;;;;;4.63;3.67;;;;;;;20.90;54.26;98704.34;4937480;29;20487;-79
2023/06/20 02:29:09;;;;;;;5.90;3.45;;;;;;;20.91;54.21;98709.47;4937325;29;20023;-80
2023/06/20 02:31:47;;;;;;;9.07;3.78;;;;;;;20.69;54.54;98729.78;4953529;29;20043;-79
2023/06/20 02:34:13;;;;;;;7.40;3.75;;;;;;;20.73;54.81;98723.09;4951709;28;20035;-79
2023/06/20 02:36:39;;;;;;;7.78;3.08;;;;;;;20.83;54.67;98722.00;4937455;29;20414;-79
2023/06/20 02:39:04;;;;;;;6.00;3.13;;;;;;;20.85;54.36;98714.69;4933880;29;20039;-79
2023/06/20 02:41:30;;;;;;;5.03;3.63;;;;;;;20.85;54.50;98718.16;4918108;29;20039;-79
2023/06/20 02:43:56;;;;;;;6.70;3.60;;;;;;;20.92;54.65;98723.53;4932914;29;20042;-79
2023/06/20 02:46:54;;;;;;;5.03;3.72;;;;;;;20.98;54.55;98724.63;4918213;29;20042;-79
2023/06/20 02:49:40;;;;;;;5.18;3.13;;;;;;;21.02;54.21;98732.06;4937673;29;20426;-79
2023/06/20 02:52:08;;;;;;;5.15;3.42;;;;;;;21.02;54.66;98731.25;4942284;29;20040;-79
2023/06/20 02:54:52;;;;;;;8.93;3.60;;;;;;;21.04;54.22;98739.81;4934968;29;20055;-79
2023/06/20 02:57:18;;;;;;;20.58;4.53;;;;;;;21.07;53.93;98739.47;4933668;29;20419;-78
2023/06/20 02:59:44;;;;;;;5.10;3.30;;;;;;;21.18;53.97;98744.28;4933732;29;20034;-79
2023/06/20 03:02:09;;;;;;;5.40;3.40;;;;;;;21.37;53.59;98742.88;4925685;29;20042;-79
2023/06/20 03:04:35;;;;;;;6.55;3.60;;;;;;;21.70;52.79;98747.78;4952838;29;20031;-79
2023/06/20 03:07:01;;;;;;;7.95;3.47;;;;;;;21.97;52.39;98742.72;4937716;29;20027;-79
2023/06/20 03:09:28;;;;;;;5.38;3.33;;;;;;;22.30;51.65;98760.84;4937112;29;20089;-79
2023/06/20 03:11:53;;;;;;;3.95;2.92;;;;;;;22.56;50.89;98750.38;4952797;29;20384;-78
2023/06/20 03:14:19;;;;;;;5.55;3.38;;;;;;;22.88;50.32;98752.59;4936853;29;20027;-79
2023/06/20 03:16:44;;;;;;;4.28;2.90;;;;;;;23.19;49.80;98765.50;4952897;29;20031;-71
2023/06/20 03:19:10;;;;;;;7.43;3.40;;;;;;;23.49;49.18;98757.22;4952959;28;20090;-71
2023/06/20 03:21:37;;;;;;;21.17;3.05;;;;;;;23.99;48.88;98759.63;4936752;29;20035;-72
2023/06/20 03:24:03;;;;;;;6.78;3.25;;;;;;;24.33;47.47;98763.94;4956268;28;20372;-72
2023/06/20 03:26:28;;;;;;;8.93;3.20;;;;;;;24.68;46.52;98761.03;4956182;29;20027;-72
2023/06/20 03:28:54;;;;;;;9.25;3.40;;;;;;;25.14;45.58;98758.47;4956589;28;20051;-71
2023/06/20 03:31:19;;;;;;;5.30;3.53;;;;;;;25.56;44.35;98759.75;4940520;29;20103;-72
2023/06/20 03:33:45;;;;;;;17.77;3.45;;;;;;;25.94;42.88;98760.78;4957478;28;20031;-69
2023/06/20 03:36:10;;;;;;;8.32;3.50;;;;;;;26.31;41.50;98764.44;4956356;29;20038;-68
2023/06/20 03:38:36;;;;;;;9.57;3.83;;;;;;;26.56;40.66;98757.44;4956397;29;20031;-70
2023/06/20 03:41:01;;;;;;;6.72;3.80;;;;;;;26.73;40.12;98761.19;4940127;29;20070;-69
2023/06/20 03:43:27;;;;;;;7.10;3.90;;;;;;;27.01;39.46;98762.53;4956299;29;20069;-68
2023/06/20 03:45:52;;;;;;;8.23;3.92;;;;;;;27.25;39.40;98752.78;4940328;29;20039;-69
2023/06/20 03:48:19;;;;;;;7.50;3.70;;;;;;;27.53;39.22;98762.13;4956098;28;20042;-69
2023/06/20 03:50:44;;;;;;;8.27;3.50;;;;;;;27.86;38.86;98758.19;4956247;28;20137;-69
2023/06/20 03:53:10;;;;;;;5.95;3.90;;;;;;;28.26;38.29;98758.41;4939526;29;20066;-70
2023/06/20 03:55:35;;;;;;;9.10;3.63;;;;;;;28.63;37.03;98758.22;4955863;28;20055;-72
2023/06/20 03:58:01;;;;;;;6.93;2.95;;;;;;;29.08;37.15;98762.09;4940204;29;20027;-71
2023/06/20 04:00:26;;;;;;;7.15;3.70;;;;;;;29.47;35.34;98751.63;4955895;28;20426;-73
2023/06/20 04:02:53;;;;;;;8.13;3.00;;;;;;;29.69;35.05;98759.81;4955861;29;20050;-71
2023/06/20 04:05:18;;;;;;;7.15;3.33;;;;;;;29.91;34.50;98759.97;4956782;28;20043;-70
2023/06/20 04:07:43;;;;;;;11.50;3.70;;;;;;;30.37;34.42;98762.59;4955739;29;20517;-72
2023/06/20 04:10:10;;;;;;;6.80;3.50;;;;;;;30.77;33.58;98756.19;4955219;28;20055;-74
2023/06/20 04:12:37;;;;;;;7.63;4.03;;;;;;;31.09;32.47;98757.44;4939874;29;20027;-71
2023/06/20 04:15:03;;;;;;;7.97;3.30;;;;;;;31.32;32.47;98761.75;4942418;28;20023;-77
2023/06/20 04:17:28;;;;;;;13.52;3.70;;;;;;;31.58;32.95;98762.06;4936178;29;20028;-72
2023/06/20 04:19:54;;;;;;;13.65;3.50;;;;;;;31.17;33.00;98762.41;4936086;29;20031;-70
2023/06/20 04:22:19;;;;;;;17.15;3.92;;;;;;;30.59;33.36;98762.69;4962788;28;20035;-71
2023/06/20 04:24:49;;;;;;;14.73;3.90;;;;;;;29.93;35.38;98770.50;4974626;28;20077;-71
2023/06/20 04:27:14;;;;;;;7.97;3.80;;;;;;;29.66;35.89;98770.25;4976003;28;20038;-71
2023/06/20 04:29:40;;;;;;;11.73;3.72;;;;;;;29.03;37.04;98770.91;4958641;28;20042;-71
2023/06/20 04:32:05;;;;;;;14.50;4.30;;;;;;;28.60;37.32;98776.66;4975696;28;20031;-71
2023/06/20 04:34:31;;;;;;;11.40;4.20;;;;;;;28.26;38.22;98787.09;4975029;28;20110;-71
2023/06/20 04:36:56;;;;;;;12.68;4.13;;;;;;;28.63;38.22;98785.06;4975589;28;20031;-71
2023/06/20 04:39:22;;;;;;;10.20;3.90;;;;;;;30.04;36.82;98779.56;4974270;28;20050;-71
2023/06/20 04:41:47;;;;;;;16.33;3.80;;;;;;;31.11;33.62;98783.09;4975305;28;20055;-71
2023/06/20 04:44:13;;;;;;;11.40;3.75;;;;;;;32.02;32.71;98781.63;4975394;28;20035;-71
2023/06/20 04:46:38;;;;;;;8.23;3.92;;;;;;;32.77;31.09;98780.91;4975353;28;20030;-71
2023/06/20 04:49:04;;;;;;;17.77;3.80;;;;;;;33.52;30.58;98783.38;4974266;28;20097;-71
2023/06/20 04:51:29;;;;;;;8.95;3.80;;;;;;;34.16;28.84;98790.28;4974009;28;20027;-71
2023/06/20 04:53:55;;;;;;;7.97;3.65;;;;;;;34.69;28.10;98781.84;4973935;28;20055;-71
2023/06/20 04:56:22;;;;;;;13.38;3.97;;;;;;;35.21;26.64;98790.66;4958013;28;20046;-71
2023/06/20 04:58:48;;;;;;;21.17;3.97;;;;;;;35.47;26.36;98790.53;4973758;28;20164;-70
2023/06/20 05:01:14;;;;;;;11.20;4.07;;;;;;;35.66;26.96;98793.41;4942009;28;20486;-71
2023/06/20 05:03:42;;;;;;;16.92;4.32;;;;;;;34.49;27.46;98801.69;4957905;28;20123;-71
2023/06/20 05:06:08;;;;;;;22.27;4.18;;;;;;;33.91;27.47;98796.50;4974461;28;20031;-70
2023/06/20 05:08:33;;;;;;;9.93;3.20;;;;;;;32.89;28.96;98794.19;4941719;28;20125;-71
2023/06/20 05:10:59;;;;;;;20.90;3.83;;;;;;;32.13;29.62;98804.19;4974060;28;20085;-71
2023/06/20 05:13:24;;;;;;;15.57;3.90;;;;;;;31.76;31.07;98798.69;4947567;28;20042;-70
2023/06/20 05:15:50;;;;;;;11.75;3.63;;;;;;;31.64;31.52;98812.31;4936084;29;20024;-69
2023/06/20 05:18:15;;;;;;;27.70;4.18;;;;;;;31.76;30.89;98815.69;4935304;29;20031;-69
2023/06/20 05:20:41;;;;;;;10.80;3.90;;;;;;;32.97;29.69;98816.16;4935521;28;20031;-69
2023/06/20 05:23:06;;;;;;;8.73;3.88;;;;;;;34.52;28.60;98814.69;4953166;28;20035;-69
2023/06/20 05:25:32;;;;;;;10.10;3.35;;;;;;;35.68;27.50;98808.34;4947095;28;20039;-68
2023/06/20 05:27:57;;;;;;;9.02;3.08;;;;;;;36.63;25.12;98812.84;4948043;29;20038;-68
2023/06/20 05:30:23;;;;;;;12.25;3.22;;;;;;;36.02;25.07;98810.31;4955051;28;20090;-68
2023/06/20 05:32:48;;;;;;;13.70;3.08;;;;;;;35.88;25.27;98806.63;4954906;28;20031;-68
2023/06/20 05:35:14;;;;;;;11.75;2.70;;;;;;;37.03;24.33;98806.16;4953956;29;20103;-68
2023/06/20 05:37:40;;;;;;;9.02;3.03;;;;;;;37.73;23.60;98809.38;4938153;29;20427;-70
2023/06/20 05:40:06;;;;;;;9.48;2.83;;;;;;;38.32;22.80;98802.47;4954114;29;20475;-72
2023/06/20 05:42:32;;;;;;;9.63;2.90;;;;;;;38.91;22.36;98800.03;4953519;29;20043;-72
2023/06/20 05:44:57;;;;;;;5.45;2.80;;;;;;;39.36;22.16;98807.63;4953752;29;20039;-71
2023/06/20 05:47:23;;;;;;;6.28;2.60;;;;;;;39.68;21.69;98800.41;4953562;28;20027;-72
2023/06/20 05:49:48;;;;;;;16.70;2.67;;;;;;;40.15;21.60;98805.59;4953906;29;20035;-72
2023/06/20 05:52:14;;;;;;;8.15;2.55;;;;;;;40.82;21.18;98803.88;4954888;28;20384;-71
2023/06/20 05:54:43;;;;;;;7.20;2.50;;;;;;;41.24;20.24;98804.31;4937789;29;20051;-72
2023/06/20 05:57:09;;;;;;;8.95;2.60;;;;;;;41.71;19.67;98809.28;4953723;29;20038;-72
2023/06/20 05:59:34;;;;;;;8.68;2.40;;;;;;;42.00;19.32;98802.31;4953658;29;20406;-71
2023/06/20 06:02:00;;;;;;;6.95;2.40;;;;;;;42.15;19.27;98807.34;4954855;28;20509;-74
2023/06/20 06:04:25;;;;;;;11.73;2.58;;;;;;;42.33;19.21;98808.09;4953652;29;20027;-72
2023/06/20 06:06:51;;;;;;;8.57;2.25;;;;;;;42.46;19.43;98807.09;4954662;29;20042;-71
2023/06/20 06:09:17;;;;;;;17.13;2.30;;;;;;;42.54;19.14;98810.94;4957206;29;20407;-70
2023/06/20 06:11:42;;;;;;;7.53;2.43;;;;;;;42.72;18.85;98806.22;4953535;29;20035;-70
2023/06/20 06:14:08;;;;;;;13.20;2.30;;;;;;;42.72;18.78;98808.16;4954419;28;20074;-70
2023/06/20 06:16:33;;;;;;;8.20;2.60;;;;;;;42.77;18.86;98807.97;4954468;28;20039;-70
2023/06/20 06:19:00;;;;;;;9.17;2.50;;;;;;;42.52;19.13;98804.97;4954390;28;20410;-73
2023/06/20 06:21:26;;;;;;;;;;;;;;;42.38;19.38;98807.91;4937843;29;20446;-73
2023/06/20 06:23:52;;;;;;;6.07;2.65;;;;;;;42.16;19.59;98810.88;4954468;29;19941;-72
2023/06/20 06:26:17;;;;;;;8.07;2.60;;;;;;;42.48;19.23;98804.03;4953698;29;20098;-73
2023/06/20 06:28:42;;;;;;;7.33;2.70;;;;;;;42.48;18.93;98806.75;4954363;28;20479;-71
2023/06/20 06:31:13;;;;;;;7.57;2.87;;;;;;;42.53;18.91;98803.03;4937057;29;20043;-74
2023/06/20 06:33:40;;;;;;;9.00;2.90;;;;;;;42.29;19.06;98807.16;4953355;29;20054;-73
2023/06/20 06:36:06;;;;;;;11.82;3.30;;;;;;;41.49;20.08;98793.78;4954274;28;20034;-77
2023/06/20 06:38:32;;;;;;;14.13;3.80;;;;;;;41.01;20.59;98795.44;4936964;29;20039;-71
2023/06/20 06:40:59;;;;;;;12.35;4.20;;;;;;;40.98;20.20;98807.00;4952996;28;20050;-72
2023/06/20 06:43:24;;;;;;;10.13;3.92;;;;;;;40.59;21.19;98787.50;4952856;29;20116;-72
2023/06/20 06:45:50;;;;;;;10.73;4.05;;;;;;;40.70;21.42;98779.84;4953322;29;20036;-73
2023/06/20 06:48:15;;;;;;;5.35;3.50;;;;;;;41.12;21.12;98774.84;4952896;29;20038;-73
2023/06/20 06:50:43;;;;;;;8.65;4.00;;;;;;;41.57;20.70;98774.56;4937021;29;20039;-71
2023/06/20 06:53:09;;;;;;;8.65;3.80;;;;;;;41.87;20.45;98765.75;4953274;29;20115;-71
2023/06/20 06:55:36;;;;;;;7.53;3.58;;;;;;;42.19;20.23;98767.13;4953039;29;20138;-80
2023/06/20 06:58:01;;;;;;;10.35;4.40;;;;;;;42.38;19.87;98771.44;4956626;28;20162;-74
2023/06/20 07:00:27;;;;;;;9.70;4.10;;;;;;;42.40;19.65;98782.88;4960596;28;20126;-77
2023/06/20 07:02:52;;;;;;;7.85;4.07;;;;;;;42.47;19.90;98794.16;4959884;29;20035;-68
2023/06/20 07:05:19;;;;;;;7.57;3.95;;;;;;;42.35;19.82;98791.31;4960659;28;20518;-68
2023/06/20 07:07:44;;;;;;;;;;;;;;;42.10;20.17;98786.34;4960788;28;20435;-68
2023/06/20 07:10:10;;;;;;;12.97;4.77;;;;;;;41.85;20.61;98784.44;4959524;28;19917;-68
2023/06/20 07:12:35;;;;;;;10.93;4.53;;;;;;;41.96;20.70;98796.69;4960483;28;20090;-67
2023/06/20 07:15:01;;;;;;;6.23;4.67;;;;;;;41.96;20.13;98791.22;4959251;28;20090;-68
2023/06/20 07:17:26;;;;;;;6.88;4.47;;;;;;;41.74;20.61;98787.50;4960468;28;20027;-68
2023/06/20 07:19:52;;;;;;;7.07;4.30;;;;;;;41.61;21.15;98785.72;4959510;28;20174;-73
2023/06/20 07:22:18;;;;;;;13.05;4.45;;;;;;;41.24;21.33;98793.38;4960104;28;20505;-77
2023/06/20 07:24:44;;;;;;;9.98;4.15;;;;;;;40.85;21.67;98792.34;4960468;28;20058;-75
2023/06/20 07:27:09;;;;;;;10.13;4.53;;;;;;;40.46;22.54;98793.91;4959067;28;20050;-73
2023/06/20 07:29:35;;;;;;;13.90;5.03;;;;;;;40.15;23.83;98787.28;4959135;28;20047;-69
2023/06/20 07:32:00;;;;;;;13.98;5.10;;;;;;;40.32;23.81;98791.22;4943052;29;20383;-68
2023/06/20 07:34:25;;;;;;;10.73;5.03;;;;;;;40.22;24.04;98794.22;4958873;28;20423;-68
2023/06/20 07:36:51;;;;;;;15.57;5.00;;;;;;;39.80;24.49;98797.94;4960008;28;20042;-69
2023/06/20 07:39:16;;;;;;;12.50;4.82;;;;;;;39.12;24.83;98787.94;4958957;29;20500;-71
2023/06/20 07:41:42;;;;;;;10.13;4.85;;;;;;;38.60;25.13;98799.78;4942627;29;20118;-73
2023/06/20 07:44:10;;;;;;;16.25;5.07;;;;;;;38.28;26.39;98793.28;4942755;29;20403;-80
2023/06/20 07:46:36;;;;;;;10.70;4.93;;;;;;;38.05;26.52;98802.34;4959115;28;20027;-80
2023/06/20 07:49:02;;;;;;;10.52;4.95;;;;;;;37.84;26.40;98797.22;4958727;28;20031;-74
2023/06/20 07:51:33;;;;;;;8.55;4.78;;;;;;;37.48;26.80;98792.28;4959146;29;20039;-83
2023/06/20 07:54:01;;;;;;;21.50;8.73;;;;;;;36.94;28.63;98795.13;4965422;28;20042;-77
2023/06/20 07:56:27;;;;;;;15.45;5.80;;;;;;;36.65;27.45;98792.41;4958314;28;20061;-76
2023/06/20 07:58:52;;;;;;;12.07;5.55;;;;;;;36.99;26.85;98788.81;4926833;29;20492;-77
2023/06/20 08:01:18;;;;;;;13.50;5.30;;;;;;;37.22;26.23;98795.34;4926868;28;20035;-75
2023/06/20 08:03:44;;;;;;;14.77;5.00;;;;;;;37.54;26.12;98793.81;4958873;29;20031;-76
2023/06/20 08:06:10;;;;;;;11.45;4.82;;;;;;;37.68;25.91;98795.81;4942523;29;20045;-75
2023/06/20 08:08:36;;;;;;;15.00;4.87;;;;;;;37.87;25.15;98790.38;4957971;28;20054;-75
2023/06/20 08:11:02;;;;;;;24.98;5.10;;;;;;;37.84;25.08;98799.94;4939641;29;20047;-75
2023/06/20 08:13:27;;;;;;;13.13;4.75;;;;;;;38.04;25.39;98792.56;4955672;29;20561;-73
2023/06/20 08:15:53;;;;;;;10.25;4.50;;;;;;;38.28;24.66;98796.00;4939559;29;20031;-79
2023/06/20 08:18:18;;;;;;;15.93;4.25;;;;;;;38.32;24.28;98796.22;4955620;29;20035;-77
2023/06/20 08:20:45;;;;;;;6.28;3.88;;;;;;;38.28;24.19;98800.66;4956666;28;20039;-73
2023/06/20 08:23:11;;;;;;;6.30;3.72;;;;;;;38.27;23.86;98797.13;4939588;29;20431;-76
2023/06/20 08:25:36;;;;;;;8.40;3.63;;;;;;;38.35;24.16;98795.59;4951838;28;20043;-76
2023/06/20 08:28:02;;;;;;;7.30;3.63;;;;;;;38.36;23.64;98794.50;4922314;29;20475;-75
2023/06/20 08:30:27;;;;;;;12.25;3.95;;;;;;;38.28;23.90;98784.28;4954798;29;20039;-76
2023/06/20 08:32:53;;;;;;;9.73;4.03;;;;;;;38.45;24.17;98786.47;4955276;28;20027;-76
2023/06/20 08:35:18;;;;;;;8.25;4.15;;;;;;;38.50;24.61;98794.53;4923520;29;20023;-77
2023/06/20 08:37:44;;;;;;;5.75;3.60;;;;;;;38.37;24.39;98783.31;4955688;28;20043;-76
2023/06/20 08:40:12;;;;;;;5.43;3.47;;;;;;;38.43;24.10;98770.41;4955217;28;20051;-76
2023/06/20 08:42:38;;;;;;;5.68;3.90;;;;;;;38.43;24.49;98767.66;4955061;28;20503;-79
2023/06/20 08:45:05;;;;;;;5.20;3.65;;;;;;;38.48;24.37;98756.66;4955494;28;20077;-76
2023/06/20 08:47:31;;;;;;;7.60;4.03;;;;;;;37.86;25.19;98754.19;4954987;28;20054;-74
2023/06/20 08:49:56;;;;;;;6.40;3.95;;;;;;;37.42;25.32;98760.81;4956169;28;20071;-76
2023/06/20 08:52:29;;;;;;;6.13;3.63;;;;;;;36.99;25.26;98777.09;4954846;29;20094;-76
2023/06/20 08:54:54;;;;;;;7.60;4.00;;;;;;;36.51;26.00;98778.66;4954773;28;20490;-76
2023/06/20 08:57:20;;;;;;;8.23;4.10;;;;;;;36.03;26.76;98789.41;4923307;29;20042;-77
2023/06/20 08:59:46;;;;;;;9.02;4.10;;;;;;;35.65;27.33;98789.91;4938959;29;20081;-76
2023/06/20 09:02:11;;;;;;;7.35;4.10;;;;;;;35.24;28.01;98786.59;4938560;29;20090;-75
2023/06/20 09:04:37;;;;;;;7.28;4.60;;;;;;;34.81;28.34;98792.44;4938836;29;20031;-76
2023/06/20 09:07:18;;;;;;;6.45;4.72;;;;;;;34.51;29.59;98806.81;4954951;28;20039;-75
2023/06/20 09:09:44;;;;;;;8.77;4.60;;;;;;;34.64;29.08;98800.03;4954684;29;20031;-76
2023/06/20 09:12:10;;;;;;;7.00;4.50;;;;;;;34.67;29.23;98794.88;4954878;28;20043;-76
2023/06/20 09:14:35;;;;;;;8.27;4.60;;;;;;;34.60;28.47;98780.78;4955636;28;20106;-76
2023/06/20 09:17:03;;;;;;;7.05;4.30;;;;;;;34.34;29.48;98775.41;4938653;29;20403;-76
2023/06/20 09:19:28;;;;;;;6.82;4.30;;;;;;;34.13;29.51;98773.75;4939245;29;20067;-76
2023/06/20 09:22:03;;;;;;;5.65;4.20;;;;;;;33.88;30.17;98781.59;4937705;28;20070;-75
2023/06/20 09:24:28;;;;;;;6.50;4.53;;;;;;;33.67;30.24;98779.94;4954404;29;20043;-76
2023/06/20 09:26:53;;;;;;;6.85;4.57;;;;;;;33.36;30.71;98777.94;4938333;29;20031;-75
2023/06/20 09:29:19;;;;;;;8.10;5.00;;;;;;;33.15;31.02;98792.44;4954208;29;20035;-75
2023/06/20 09:31:48;;;;;;;6.20;4.80;;;;;;;32.86;31.54;98790.13;4938322;29;20043;-77
2023/06/20 09:34:18;;;;;;;7.78;4.80;;;;;;;32.62;31.94;98781.59;4954242;29;20106;-78
2023/06/20 09:36:44;;;;;;;9.23;5.03;;;;;;;32.39;32.56;98799.81;4939074;29;20035;-77
2023/06/20 09:39:15;;;;;;;6.15;5.32;;;;;;;32.16;32.87;98794.75;4954084;28;20035;-75
2023/06/20 09:41:47;;;;;;;6.43;5.38;;;;;;;32.09;33.03;98781.47;4953916;28;20039;-76
2023/06/20 09:44:13;;;;;;;10.43;5.10;;;;;;;32.31;32.94;98777.84;4954017;29;20063;-75
2023/06/20 09:46:39;;;;;;;7.38;5.10;;;;;;;32.49;33.05;98785.56;4954992;28;20166;-75
2023/06/20 09:49:05;;;;;;;11.85;5.47;;;;;;;32.67;32.76;98775.44;4937899;29;20046;-76
2023/06/20 09:51:32;;;;;;;8.05;5.00;;;;;;;32.82;32.46;98780.94;4938350;29;20090;-75
2023/06/20 09:54:04;;;;;;;9.57;4.93;;;;;;;32.98;32.15;98769.09;4937661;29;20045;-77
2023/06/20 09:56:30;;;;;;;8.95;5.18;;;;;;;33.00;31.96;98774.25;4937690;29;20027;-75
2023/06/20 09:58:57;;;;;;;7.80;4.88;;;;;;;33.08;31.45;98768.31;4937693;29;20031;-77
2023/06/20 10:01:23;;;;;;;7.60;4.53;;;;;;;33.00;31.31;98771.53;4937721;29;20035;-78
2023/06/20 10:03:49;;;;;;;10.65;4.50;;;;;;;32.80;31.18;98759.56;4937772;29;20125;-76
2023/06/20 10:06:14;;;;;;;6.00;4.60;;;;;;;32.76;31.39;98750.34;4937917;29;20127;-77
2023/06/20 10:08:40;;;;;;;10.38;4.88;;;;;;;32.74;31.41;98740.88;4953497;29;20036;-78
2023/06/20 10:11:05;;;;;;;5.88;4.30;;;;;;;32.54;30.90;98742.34;4921674;29;20070;-76
2023/06/20 10:13:31;;;;;;;7.25;4.60;;;;;;;32.70;31.03;98737.88;4937468;29;20085;-77
2023/06/20 10:15:59;;;;;;;12.38;4.35;;;;;;;32.66;30.30;98735.97;4953318;28;20058;-75
2023/06/20 10:18:30;;;;;;;8.07;4.22;;;;;;;32.47;30.96;98736.38;4953553;29;20031;-79
2023/06/20 10:20:56;;;;;;;5.13;4.35;;;;;;;32.33;31.11;98735.22;4953478;28;20032;-76
2023/06/20 10:23:29;;;;;;;7.65;4.18;;;;;;;32.36;30.89;98738.19;4953212;29;20041;-77
2023/06/20 10:25:58;;;;;;;5.70;3.78;;;;;;;32.27;31.26;98728.94;4937239;29;20027;-78
2023/06/20 10:28:23;;;;;;;5.10;3.92;;;;;;;32.17;30.91;98729.69;4937688;29;20122;-75
2023/06/20 10:30:49;;;;;;;8.95;4.05;;;;;;;32.13;31.15;98741.28;4937186;29;20037;-77
2023/06/20 10:33:14;;;;;;;4.82;3.72;;;;;;;32.11;31.19;98746.94;4953569;28;20035;-76
2023/06/20 10:35:53;;;;;;;4.70;4.20;;;;;;;32.03;31.22;98736.56;4953201;29;20024;-74
2023/06/20 10:38:19;;;;;;;5.68;4.00;;;;;;;32.06;31.60;98733.38;4953117;29;20038;-76
2023/06/20 10:40:44;;;;;;;7.03;4.45;;;;;;;32.01;31.49;98734.13;4936777;29;20105;-77
2023/06/20 10:43:21;;;;;;;7.03;4.63;;;;;;;31.85;31.53;98760.19;4952800;28;20058;-76
2023/06/20 10:45:57;;;;;;;6.97;4.45;;;;;;;31.77;31.91;98768.75;4936985;29;20131;-77
2023/06/20 10:48:23;;;;;;;6.82;4.22;;;;;;;31.65;32.02;98787.78;4937452;29;20043;-75
2023/06/20 10:50:49;;;;;;;5.25;4.05;;;;;;;31.48;32.59;98797.81;4952864;29;20070;-76
2023/06/20 10:53:14;;;;;;;9.20;4.13;;;;;;;31.36;32.95;98795.25;4954212;28;20043;-75
2023/06/20 10:55:40;;;;;;;6.85;4.25;;;;;;;31.27;33.42;98777.88;4953653;28;20123;-76
2023/06/20 10:58:06;;;;;;;9.63;4.60;;;;;;;31.17;33.84;98768.59;4952833;29;20050;-75
2023/06/20 11:00:31;;;;;;;9.63;4.20;;;;;;;31.09;33.90;98769.06;4936810;29;20126;-77
2023/06/20 11:02:57;;;;;;;8.48;4.90;;;;;;;31.05;33.91;98783.28;4936774;29;20399;-75
2023/06/20 11:05:26;;;;;;;8.13;4.70;;;;;;;30.97;34.27;98781.81;4936736;29;20079;-76
2023/06/20 11:07:59;;;;;;;6.63;4.53;;;;;;;30.91;34.64;98796.25;4936685;29;20027;-74
2023/06/20 11:10:34;;;;;;;7.88;4.50;;;;;;;30.77;34.69;98793.09;4936976;29;20043;-78
2023/06/20 11:13:01;;;;;;;6.63;4.32;;;;;;;30.64;35.26;98799.66;4952752;29;20031;-75
2023/06/20 11:15:34;;;;;;;9.52;4.20;;;;;;;30.46;35.17;98803.44;4952896;29;20027;-76
2023/06/20 11:18:06;;;;;;;8.35;4.10;;;;;;;30.30;35.51;98821.19;4936406;29;20499;-75
2023/06/20 11:20:35;;;;;;;6.35;4.20;;;;;;;30.17;35.76;98832.25;4952633;28;20042;-75
2023/06/20 11:23:02;;;;;;;8.70;4.28;;;;;;;30.00;35.70;98816.09;4952961;28;20027;-74
2023/06/20 11:25:29;;;;;;;12.23;4.18;;;;;;;29.89;36.00;98832.06;4936864;29;20438;-74
2023/06/20 11:27:55;;;;;;;6.60;3.83;;;;;;;29.70;36.83;98811.78;4936593;29;20123;-74
2023/06/20 11:30:27;;;;;;;8.73;4.25;;;;;;;29.62;37.13;98821.03;4952563;29;20039;-74